sensor_id;sensor_type;location;lat;lon;timestamp;pressure;altitude;pressure_sealevel;temperature;humidity
34328;BME280;20588;48.840;10.064;2023-02-14T00:02:10;98288.53;;;0.02;nan
34328;BME280;20588;48.840;10.064;2023-02-14T00:04:36;98292.16;;;-0.03;nan
34328;BME280;20588;48.840;10.064;2023-02-14T00:07:07;98283.94;;;-0.06;nan
34328;BME280;20588;48.840;10.064;2023-02-14T00:09:33;98290.13;;;-0.10;nan
34328;BME280;20588;48.840;10.064;2023-02-14T00:11:59;98287.06;;;-0.15;nan
34328;BME280;20588;48.840;10.064;2023-02-14T00:14:25;98292.13;;;-0.15;nan
34328;BME280;20588;48.840;10.064;2023-02-14T00:17:09;98283.47;;;-0.11;nan
34328;BME280;20588;48.840;10.064;2023-02-14T00:19:35;98284.34;;;-0.12;nan
34328;BME280;20588;48.840;10.064;2023-02-14T00:22:02;98275.34;;;-0.16;nan
34328;BME280;20588;48.840;10.064;2023-02-14T00:24:28;98276.56;;;-0.22;nan
34328;BME280;20588;48.840;10.064;2023-02-14T00:26:54;98281.72;;;-0.23;nan
34328;BME280;20588;48.840;10.064;2023-02-14T00:29:26;98276.88;;;-0.26;nan
34328;BME280;20588;48.840;10.064;2023-02-14T00:31:53;98279.31;;;-0.25;nan
34328;BME280;20588;48.840;10.064;2023-02-14T00:34:19;98269.97;;;-0.24;nan
34328;BME280;20588;48.840;10.064;2023-02-14T00:36:46;98269.28;;;-0.26;nan
34328;BME280;20588;48.840;10.064;2023-02-14T00:39:13;98275.03;;;-0.24;nan
34328;BME280;20588;48.840;10.064;2023-02-14T00:41:40;98275.16;;;-0.13;nan
34328;BME280;20588;48.840;10.064;2023-02-14T00:44:07;98282.75;;;-0.13;nan
34328;BME280;20588;48.840;10.064;2023-02-14T00:46:34;98284.25;;;-0.11;nan
34328;BME280;20588;48.840;10.064;2023-02-14T00:49:00;98274.75;;;0.06;nan
34328;BME280;20588;48.840;10.064;2023-02-14T00:51:27;98272.75;;;-0.02;nan
34328;BME280;20588;48.840;10.064;2023-02-14T00:53:53;98275.88;;;-0.11;nan
34328;BME280;20588;48.840;10.064;2023-02-14T00:56:19;98273.34;;;0.02;nan
34328;BME280;20588;48.840;10.064;2023-02-14T00:58:45;98275.16;;;-0.13;nan
34328;BME280;20588;48.840;10.064;2023-02-14T01:01:13;98280.09;;;-0.24;nan
34328;BME280;20588;48.840;10.064;2023-02-14T01:03:39;98276.06;;;-0.27;nan
34328;BME280;20588;48.840;10.064;2023-02-14T01:06:06;98270.47;;;-0.32;nan
34328;BME280;20588;48.840;10.064;2023-02-14T01:08:32;98273.41;;;-0.38;nan
34328;BME280;20588;48.840;10.064;2023-02-14T01:11:11;98271.16;;;-0.42;nan
34328;BME280;20588;48.840;10.064;2023-02-14T01:13:37;98276.31;;;-0.44;nan
34328;BME280;20588;48.840;10.064;2023-02-14T01:16:07;98269.66;;;-0.45;nan
34328;BME280;20588;48.840;10.064;2023-02-14T01:18:34;98272.38;;;-0.48;nan
34328;BME280;20588;48.840;10.064;2023-02-14T01:21:21;98271.75;;;-0.51;nan
34328;BME280;20588;48.840;10.064;2023-02-14T01:23:50;98278.03;;;-0.57;nan
34328;BME280;20588;48.840;10.064;2023-02-14T01:26:17;98273.38;;;-0.63;nan
34328;BME280;20588;48.840;10.064;2023-02-14T01:28:44;98281.44;;;-0.70;nan
34328;BME280;20588;48.840;10.064;2023-02-14T01:31:16;98274.22;;;-0.76;nan
34328;BME280;20588;48.840;10.064;2023-02-14T01:33:44;98280.69;;;-0.72;nan
34328;BME280;20588;48.840;10.064;2023-02-14T01:36:36;98285.13;;;-0.76;nan
34328;BME280;20588;48.840;10.064;2023-02-14T01:39:11;98282.00;;;-0.79;nan
34328;BME280;20588;48.840;10.064;2023-02-14T01:41:40;98291.91;;;-0.76;nan
34328;BME280;20588;48.840;10.064;2023-02-14T01:46:39;98296.00;;;-0.88;nan
34328;BME280;20588;48.840;10.064;2023-02-14T01:51:53;98285.09;;;-0.88;nan
34328;BME280;20588;48.840;10.064;2023-02-14T01:54:24;98291.03;;;-0.89;nan
34328;BME280;20588;48.840;10.064;2023-02-14T01:56:56;98288.22;;;-0.85;nan
34328;BME280;20588;48.840;10.064;2023-02-14T01:59:27;98294.44;;;-0.76;nan
34328;BME280;20588;48.840;10.064;2023-02-14T02:01:55;98292.53;;;-0.73;nan
34328;BME280;20588;48.840;10.064;2023-02-14T02:04:42;98295.47;;;-0.66;nan
34328;BME280;20588;48.840;10.064;2023-02-14T02:07:16;98289.00;;;-0.70;nan
34328;BME280;20588;48.840;10.064;2023-02-14T02:09:52;98289.28;;;-0.75;nan
34328;BME280;20588;48.840;10.064;2023-02-14T02:12:19;98294.34;;;-0.75;nan
34328;BME280;20588;48.840;10.064;2023-02-14T02:14:46;98294.97;;;-0.71;nan
34328;BME280;20588;48.840;10.064;2023-02-14T02:17:18;98287.59;;;-0.62;nan
34328;BME280;20588;48.840;10.064;2023-02-14T02:20:05;98280.44;;;-0.55;nan
34328;BME280;20588;48.840;10.064;2023-02-14T02:23:04;98285.19;;;-0.63;nan
34328;BME280;20588;48.840;10.064;2023-02-14T02:26:07;98280.50;;;-0.69;nan
34328;BME280;20588;48.840;10.064;2023-02-14T02:32:20;98266.94;;;-0.81;nan
34328;BME280;20588;48.840;10.064;2023-02-14T02:35:09;98262.38;;;-0.88;nan
34328;BME280;20588;48.840;10.064;2023-02-14T02:37:49;98263.53;;;-0.94;nan
34328;BME280;20588;48.840;10.064;2023-02-14T02:41:30;98263.84;;;-0.98;nan
34328;BME280;20588;48.840;10.064;2023-02-14T02:49:12;98271.31;;;-1.23;nan
34328;BME280;20588;48.840;10.064;2023-02-14T02:52:02;98258.88;;;-1.26;nan
34328;BME280;20588;48.840;10.064;2023-02-14T02:54:53;98266.16;;;-1.22;nan
34328;BME280;20588;48.840;10.064;2023-02-14T02:57:28;98251.28;;;-1.12;nan
34328;BME280;20588;48.840;10.064;2023-02-14T02:59:57;98254.22;;;-1.06;nan
34328;BME280;20588;48.840;10.064;2023-02-14T03:02:40;98255.50;;;-1.13;nan
34328;BME280;20588;48.840;10.064;2023-02-14T03:05:27;98254.38;;;-1.21;nan
34328;BME280;20588;48.840;10.064;2023-02-14T03:07:54;98251.50;;;-1.29;nan
34328;BME280;20588;48.840;10.064;2023-02-14T03:10:30;98250.56;;;-1.28;nan
34328;BME280;20588;48.840;10.064;2023-02-14T03:13:10;98249.97;;;-1.32;nan
34328;BME280;20588;48.840;10.064;2023-02-14T03:19:02;98251.03;;;-1.36;nan
34328;BME280;20588;48.840;10.064;2023-02-14T03:21:50;98248.97;;;-1.29;nan
34328;BME280;20588;48.840;10.064;2023-02-14T03:27:24;98248.59;;;-1.23;nan
34328;BME280;20588;48.840;10.064;2023-02-14T03:35:06;98270.03;;;-1.16;nan
34328;BME280;20588;48.840;10.064;2023-02-14T03:38:06;98266.75;;;-1.04;nan
34328;BME280;20588;48.840;10.064;2023-02-14T03:40:37;98271.41;;;-0.98;nan
34328;BME280;20588;48.840;10.064;2023-02-14T03:43:12;98267.28;;;-0.99;nan
34328;BME280;20588;48.840;10.064;2023-02-14T03:45:53;98264.03;;;-1.01;nan
34328;BME280;20588;48.840;10.064;2023-02-14T03:48:25;98264.03;;;-1.01;nan
34328;BME280;20588;48.840;10.064;2023-02-14T03:50:53;98266.66;;;-1.03;nan
34328;BME280;20588;48.840;10.064;2023-02-14T03:53:24;98261.97;;;-1.09;nan
34328;BME280;20588;48.840;10.064;2023-02-14T03:56:17;98268.13;;;-1.13;nan
34328;BME280;20588;48.840;10.064;2023-02-14T03:58:50;98268.03;;;-1.11;nan
34328;BME280;20588;48.840;10.064;2023-02-14T04:01:29;98268.03;;;-1.11;nan
34328;BME280;20588;48.840;10.064;2023-02-14T04:03:59;98257.31;;;-1.15;nan
34328;BME280;20588;48.840;10.064;2023-02-14T04:06:25;98259.94;;;-1.16;nan
34328;BME280;20588;48.840;10.064;2023-02-14T04:08:51;98250.56;;;-1.14;nan
34328;BME280;20588;48.840;10.064;2023-02-14T04:11:17;98251.47;;;-1.15;nan
34328;BME280;20588;48.840;10.064;2023-02-14T04:13:43;98256.31;;;-1.12;nan
34328;BME280;20588;48.840;10.064;2023-02-14T04:16:09;98257.84;;;-1.10;nan
34328;BME280;20588;48.840;10.064;2023-02-14T04:18:35;98262.34;;;-1.15;nan
34328;BME280;20588;48.840;10.064;2023-02-14T04:21:20;98263.19;;;-1.14;nan
34328;BME280;20588;48.840;10.064;2023-02-14T04:23:46;98258.41;;;-1.19;nan
34328;BME280;20588;48.840;10.064;2023-02-14T04:26:12;98258.84;;;-1.12;nan
34328;BME280;20588;48.840;10.064;2023-02-14T04:28:38;98258.94;;;-0.87;nan
34328;BME280;20588;48.840;10.064;2023-02-14T04:31:05;98259.75;;;-0.87;nan
34328;BME280;20588;48.840;10.064;2023-02-14T04:33:32;98259.75;;;-0.87;nan
34328;BME280;20588;48.840;10.064;2023-02-14T04:35:59;98259.66;;;-0.85;nan
34328;BME280;20588;48.840;10.064;2023-02-14T04:38:25;98249.66;;;-0.87;nan
34328;BME280;20588;48.840;10.064;2023-02-14T04:40:51;98255.59;;;-0.88;nan
34328;BME280;20588;48.840;10.064;2023-02-14T04:43:18;98257.53;;;-0.79;nan
34328;BME280;20588;48.840;10.064;2023-02-14T04:45:44;98249.31;;;-0.56;nan
34328;BME280;20588;48.840;10.064;2023-02-14T04:48:10;98244.34;;;-0.57;nan
34328;BME280;20588;48.840;10.064;2023-02-14T04:50:36;98243.13;;;-0.64;nan
34328;BME280;20588;48.840;10.064;2023-02-14T04:53:02;98243.75;;;-0.48;nan
34328;BME280;20588;48.840;10.064;2023-02-14T04:55:28;98246.38;;;-0.50;nan
34328;BME280;20588;48.840;10.064;2023-02-14T04:57:54;98249.44;;;-0.45;nan
34328;BME280;20588;48.840;10.064;2023-02-14T05:00:21;98246.31;;;-0.36;nan
34328;BME280;20588;48.840;10.064;2023-02-14T05:02:47;98246.22;;;-0.34;nan
34328;BME280;20588;48.840;10.064;2023-02-14T05:05:13;98240.13;;;-0.32;nan
34328;BME280;20588;48.840;10.064;2023-02-14T05:07:39;98240.84;;;-0.42;nan
34328;BME280;20588;48.840;10.064;2023-02-14T05:10:07;98237.09;;;-0.49;nan
34328;BME280;20588;48.840;10.064;2023-02-14T05:12:33;98227.31;;;-0.41;nan
34328;BME280;20588;48.840;10.064;2023-02-14T05:14:59;98227.41;;;-0.05;nan
34328;BME280;20588;48.840;10.064;2023-02-14T05:17:25;98232.25;;;-0.27;nan
34328;BME280;20588;48.840;10.064;2023-02-14T05:19:51;98222.84;;;-0.25;nan
34328;BME280;20588;48.840;10.064;2023-02-14T05:22:17;98224.06;;;-0.31;nan
34328;BME280;20588;48.840;10.064;2023-02-14T05:24:43;98222.84;;;-0.50;nan
34328;BME280;20588;48.840;10.064;2023-02-14T05:27:09;98224.34;;;-0.60;nan
34328;BME280;20588;48.840;10.064;2023-02-14T05:29:36;98219.88;;;-0.69;nan
34328;BME280;20588;48.840;10.064;2023-02-14T05:32:02;98213.41;;;-0.73;nan
34328;BME280;20588;48.840;10.064;2023-02-14T05:34:29;98217.84;;;-0.77;nan
34328;BME280;20588;48.840;10.064;2023-02-14T05:36:55;98212.06;;;-0.79;nan
34328;BME280;20588;48.840;10.064;2023-02-14T05:39:21;98210.75;;;-0.84;nan
34328;BME280;20588;48.840;10.064;2023-02-14T05:41:47;98211.84;;;-0.88;nan
34328;BME280;20588;48.840;10.064;2023-02-14T05:44:13;98208.91;;;-0.95;nan
34328;BME280;20588;48.840;10.064;2023-02-14T05:46:39;98217.97;;;-1.05;nan
34328;BME280;20588;48.840;10.064;2023-02-14T05:49:05;98226.03;;;-1.12;nan
34328;BME280;20588;48.840;10.064;2023-02-14T05:51:31;98219.25;;;-1.12;nan
34328;BME280;20588;48.840;10.064;2023-02-14T05:53:57;98222.34;;;-1.21;nan
34328;BME280;20588;48.840;10.064;2023-02-14T05:56:24;98226.69;;;-1.23;nan
34328;BME280;20588;48.840;10.064;2023-02-14T05:58:50;98225.97;;;-1.25;nan
34328;BME280;20588;48.840;10.064;2023-02-14T06:01:16;98227.78;;;-1.27;nan
34328;BME280;20588;48.840;10.064;2023-02-14T06:03:42;98238.03;;;-1.16;nan
34328;BME280;20588;48.840;10.064;2023-02-14T06:06:08;98231.19;;;-1.14;nan
34328;BME280;20588;48.840;10.064;2023-02-14T06:08:35;98218.47;;;-1.12;nan
34328;BME280;20588;48.840;10.064;2023-02-14T06:11:01;98217.00;;;-0.90;nan
34328;BME280;20588;48.840;10.064;2023-02-14T06:13:27;98222.16;;;-0.91;nan
34328;BME280;20588;48.840;10.064;2023-02-14T06:15:53;98224.69;;;-0.79;nan
34328;BME280;20588;48.840;10.064;2023-02-14T06:18:19;98230.63;;;-0.41;nan
34328;BME280;20588;48.840;10.064;2023-02-14T06:20:45;98231.97;;;-0.35;nan
34328;BME280;20588;48.840;10.064;2023-02-14T06:23:11;98230.00;;;-0.57;nan
34328;BME280;20588;48.840;10.064;2023-02-14T06:25:37;98236.56;;;-0.67;nan
34328;BME280;20588;48.840;10.064;2023-02-14T06:28:03;98234.34;;;-0.71;nan
34328;BME280;20588;48.840;10.064;2023-02-14T06:30:29;98233.53;;;-0.72;nan
34328;BME280;20588;48.840;10.064;2023-02-14T06:32:55;98240.50;;;-0.63;nan
34328;BME280;20588;48.840;10.064;2023-02-14T06:35:21;98247.16;;;-0.62;nan
34328;BME280;20588;48.840;10.064;2023-02-14T06:37:47;98243.75;;;-0.61;nan
34328;BME280;20588;48.840;10.064;2023-02-14T06:40:14;98248.81;;;-0.48;nan
34328;BME280;20588;48.840;10.064;2023-02-14T06:42:40;98243.06;;;-0.50;nan
34328;BME280;20588;48.840;10.064;2023-02-14T06:45:06;98253.97;;;-0.50;nan
34328;BME280;20588;48.840;10.064;2023-02-14T06:47:32;98257.44;;;-0.38;nan
34328;BME280;20588;48.840;10.064;2023-02-14T06:49:58;98255.81;;;-0.39;nan
34328;BME280;20588;48.840;10.064;2023-02-14T06:52:25;98259.78;;;0.03;nan
34328;BME280;20588;48.840;10.064;2023-02-14T06:54:51;98253.69;;;0.05;nan
34328;BME280;20588;48.840;10.064;2023-02-14T06:57:18;98256.22;;;-0.08;nan
34328;BME280;20588;48.840;10.064;2023-02-14T06:59:44;98257.75;;;0.20;nan
34328;BME280;20588;48.840;10.064;2023-02-14T07:02:11;98259.47;;;0.07;nan
34328;BME280;20588;48.840;10.064;2023-02-14T07:04:37;98265.56;;;0.05;nan
34328;BME280;20588;48.840;10.064;2023-02-14T07:07:04;98262.31;;;0.03;nan
34328;BME280;20588;48.840;10.064;2023-02-14T07:09:30;98248.66;;;0.18;nan
34328;BME280;20588;48.840;10.064;2023-02-14T07:11:56;98244.25;;;0.32;nan
34328;BME280;20588;48.840;10.064;2023-02-14T07:14:22;98253.22;;;0.61;nan
34328;BME280;20588;48.840;10.064;2023-02-14T07:16:48;98254.97;;;1.08;nan
34328;BME280;20588;48.840;10.064;2023-02-14T07:19:14;98250.69;;;1.55;nan
34328;BME280;20588;48.840;10.064;2023-02-14T07:21:40;98246.94;;;1.94;nan
34328;BME280;20588;48.840;10.064;2023-02-14T07:24:06;98244.78;;;2.45;nan
34328;BME280;20588;48.840;10.064;2023-02-14T07:26:32;98244.50;;;2.70;nan
34328;BME280;20588;48.840;10.064;2023-02-14T07:28:58;98240.53;;;2.88;nan
34328;BME280;20588;48.840;10.064;2023-02-14T07:31:24;98241.19;;;3.12;nan
34328;BME280;20588;48.840;10.064;2023-02-14T07:33:51;98241.38;;;3.72;nan
34328;BME280;20588;48.840;10.064;2023-02-14T07:36:18;98244.94;;;4.41;nan
34328;BME280;20588;48.840;10.064;2023-02-14T07:38:44;98238.13;;;4.51;nan
34328;BME280;20588;48.840;10.064;2023-02-14T07:41:10;98231.72;;;4.66;nan
34328;BME280;20588;48.840;10.064;2023-02-14T07:43:36;98233.06;;;4.60;nan
34328;BME280;20588;48.840;10.064;2023-02-14T07:46:03;98234.44;;;4.34;nan
34328;BME280;20588;48.840;10.064;2023-02-14T07:48:29;98233.03;;;3.91;nan
34328;BME280;20588;48.840;10.064;2023-02-14T07:50:55;98233.16;;;3.89;nan
34328;BME280;20588;48.840;10.064;2023-02-14T07:53:23;98229.22;;;4.06;nan
34328;BME280;20588;48.840;10.064;2023-02-14T07:55:50;98233.06;;;4.30;nan
34328;BME280;20588;48.840;10.064;2023-02-14T07:58:17;98236.84;;;4.75;nan
34328;BME280;20588;48.840;10.064;2023-02-14T08:00:43;98231.50;;;4.97;nan
34328;BME280;20588;48.840;10.064;2023-02-14T08:03:11;98236.72;;;4.77;nan
34328;BME280;20588;48.840;10.064;2023-02-14T08:05:37;98234.56;;;4.72;nan
34328;BME280;20588;48.840;10.064;2023-02-14T08:08:04;98232.31;;;5.65;nan
34328;BME280;20588;48.840;10.064;2023-02-14T08:10:30;98227.25;;;6.47;nan
34328;BME280;20588;48.840;10.064;2023-02-14T08:12:56;98230.66;;;7.27;nan
34328;BME280;20588;48.840;10.064;2023-02-14T08:15:31;98234.34;;;7.68;nan
34328;BME280;20588;48.840;10.064;2023-02-14T08:18:16;98227.22;;;7.54;nan
34328;BME280;20588;48.840;10.064;2023-02-14T08:20:43;98233.94;;;7.20;nan
34328;BME280;20588;48.840;10.064;2023-02-14T08:23:10;98228.31;;;7.16;nan
34328;BME280;20588;48.840;10.064;2023-02-14T08:25:36;98232.69;;;6.89;nan
34328;BME280;20588;48.840;10.064;2023-02-14T08:28:03;98229.19;;;7.60;nan
34328;BME280;20588;48.840;10.064;2023-02-14T08:30:30;98228.50;;;9.50;nan
34328;BME280;20588;48.840;10.064;2023-02-14T08:32:56;98218.25;;;10.75;nan
34328;BME280;20588;48.840;10.064;2023-02-14T08:35:22;98230.53;;;11.04;nan
34328;BME280;20588;48.840;10.064;2023-02-14T08:37:48;98217.19;;;11.68;nan
34328;BME280;20588;48.840;10.064;2023-02-14T08:40:14;98221.00;;;13.03;nan
34328;BME280;20588;48.840;10.064;2023-02-14T08:42:40;98231.56;;;13.92;nan
34328;BME280;20588;48.840;10.064;2023-02-14T08:45:07;98214.44;;;14.19;nan
34328;BME280;20588;48.840;10.064;2023-02-14T08:47:33;98204.50;;;15.36;nan
34328;BME280;20588;48.840;10.064;2023-02-14T08:50:08;98201.31;;;16.06;nan
34328;BME280;20588;48.840;10.064;2023-02-14T08:52:34;98199.50;;;16.13;nan
34328;BME280;20588;48.840;10.064;2023-02-14T08:55:01;98196.91;;;16.13;nan
34328;BME280;20588;48.840;10.064;2023-02-14T08:57:27;98194.47;;;15.07;nan
34328;BME280;20588;48.840;10.064;2023-02-14T08:59:53;98194.69;;;13.35;nan
34328;BME280;20588;48.840;10.064;2023-02-14T09:02:20;98197.56;;;13.26;nan
34328;BME280;20588;48.840;10.064;2023-02-14T09:04:46;98200.94;;;12.91;nan
34328;BME280;20588;48.840;10.064;2023-02-14T09:07:12;98199.09;;;13.62;nan
34328;BME280;20588;48.840;10.064;2023-02-14T09:09:39;98184.09;;;15.01;nan
34328;BME280;20588;48.840;10.064;2023-02-14T09:12:06;98186.19;;;14.24;nan
34328;BME280;20588;48.840;10.064;2023-02-14T09:14:37;98192.47;;;14.96;nan
34328;BME280;20588;48.840;10.064;2023-02-14T09:17:04;98190.44;;;17.61;nan
34328;BME280;20588;48.840;10.064;2023-02-14T09:19:34;98178.00;;;18.24;nan
34328;BME280;20588;48.840;10.064;2023-02-14T09:22:01;98169.97;;;20.31;nan
34328;BME280;20588;48.840;10.064;2023-02-14T09:24:31;98174.84;;;22.01;nan
34328;BME280;20588;48.840;10.064;2023-02-14T09:29:24;98254.88;;;21.59;nan
34328;BME280;20588;48.840;10.064;2023-02-14T09:31:57;98174.25;;;22.15;nan
34328;BME280;20588;48.840;10.064;2023-02-14T09:34:25;98167.03;;;19.81;nan
34328;BME280;20588;48.840;10.064;2023-02-14T09:36:52;98165.00;;;21.42;nan
34328;BME280;20588;48.840;10.064;2023-02-14T09:39:37;98176.25;;;21.59;nan
34328;BME280;20588;48.840;10.064;2023-02-14T09:45:04;98173.03;;;20.79;nan
34328;BME280;20588;48.840;10.064;2023-02-14T09:48:11;98174.00;;;21.17;nan
34328;BME280;20588;48.840;10.064;2023-02-14T09:51:00;98171.31;;;22.33;nan
34328;BME280;20588;48.840;10.064;2023-02-14T09:59:46;98158.97;;;22.98;nan
34328;BME280;20588;48.840;10.064;2023-02-14T10:05:16;98165.94;;;22.45;nan
34328;BME280;20588;48.840;10.064;2023-02-14T10:07:59;98155.50;;;24.34;nan
34328;BME280;20588;48.840;10.064;2023-02-14T10:10:49;98149.44;;;25.01;nan
34328;BME280;20588;48.840;10.064;2023-02-14T10:13:37;98148.16;;;25.53;nan
34328;BME280;20588;48.840;10.064;2023-02-14T10:16:17;98148.63;;;26.10;nan
34328;BME280;20588;48.840;10.064;2023-02-14T10:21:36;98152.00;;;24.14;nan
34328;BME280;20588;48.840;10.064;2023-02-14T10:27:35;98146.25;;;24.99;nan
34328;BME280;20588;48.840;10.064;2023-02-14T10:30:00;98147.09;;;25.59;nan
34328;BME280;20588;48.840;10.064;2023-02-14T10:35:22;98152.31;;;26.04;nan
34328;BME280;20588;48.840;10.064;2023-02-14T10:46:17;98137.34;;;25.25;nan
34328;BME280;20588;48.840;10.064;2023-02-14T10:51:45;98131.09;;;21.18;nan
34328;BME280;20588;48.840;10.064;2023-02-14T10:54:54;98125.66;;;22.34;nan
34328;BME280;20588;48.840;10.064;2023-02-14T10:57:29;98128.91;;;23.84;nan
34328;BME280;20588;48.840;10.064;2023-02-14T11:00:00;98120.19;;;25.37;nan
34328;BME280;20588;48.840;10.064;2023-02-14T11:02:36;98120.44;;;25.76;nan
34328;BME280;20588;48.840;10.064;2023-02-14T11:05:05;98113.34;;;25.56;nan
34328;BME280;20588;48.840;10.064;2023-02-14T11:07:33;98104.91;;;25.24;nan
34328;BME280;20588;48.840;10.064;2023-02-14T11:09:59;98108.38;;;23.76;nan
34328;BME280;20588;48.840;10.064;2023-02-14T11:17:41;98101.06;;;23.88;nan
34328;BME280;20588;48.840;10.064;2023-02-14T11:22:45;98092.78;;;22.48;nan
34328;BME280;20588;48.840;10.064;2023-02-14T11:25:20;98090.16;;;22.27;nan
34328;BME280;20588;48.840;10.064;2023-02-14T11:27:49;98087.72;;;21.77;nan
34328;BME280;20588;48.840;10.064;2023-02-14T11:30:29;98084.78;;;19.49;nan
34328;BME280;20588;48.840;10.064;2023-02-14T11:32:56;98090.56;;;18.46;nan
34328;BME280;20588;48.840;10.064;2023-02-14T11:35:25;98083.41;;;18.05;nan
34328;BME280;20588;48.840;10.064;2023-02-14T11:37:56;98078.09;;;17.08;nan
34328;BME280;20588;48.840;10.064;2023-02-14T11:40:36;98087.78;;;16.19;nan
34328;BME280;20588;48.840;10.064;2023-02-14T11:45:40;98075.50;;;15.89;nan
34328;BME280;20588;48.840;10.064;2023-02-14T11:48:24;98072.41;;;15.22;nan
34328;BME280;20588;48.840;10.064;2023-02-14T11:50:57;98064.81;;;15.07;nan
34328;BME280;20588;48.840;10.064;2023-02-14T11:53:48;98068.00;;;15.35;nan
34328;BME280;20588;48.840;10.064;2023-02-14T11:56:14;98070.19;;;14.86;nan
34328;BME280;20588;48.840;10.064;2023-02-14T11:58:48;98071.59;;;15.28;nan
34328;BME280;20588;48.840;10.064;2023-02-14T12:01:23;98070.19;;;15.58;nan
34328;BME280;20588;48.840;10.064;2023-02-14T12:03:51;98065.63;;;15.53;nan
34328;BME280;20588;48.840;10.064;2023-02-14T12:06:44;98061.44;;;15.07;nan
34328;BME280;20588;48.840;10.064;2023-02-14T12:11:59;98051.25;;;13.31;nan
34328;BME280;20588;48.840;10.064;2023-02-14T12:14:29;98042.53;;;14.20;nan
34328;BME280;20588;48.840;10.064;2023-02-14T12:17:03;98046.50;;;14.22;nan
34328;BME280;20588;48.840;10.064;2023-02-14T12:22:13;98036.25;;;15.59;nan
34328;BME280;20588;48.840;10.064;2023-02-14T12:25:01;98033.72;;;15.46;nan
34328;BME280;20588;48.840;10.064;2023-02-14T12:27:31;98023.31;;;15.40;nan
34328;BME280;20588;48.840;10.064;2023-02-14T12:32:43;98022.72;;;16.08;nan
34328;BME280;20588;48.840;10.064;2023-02-14T12:41:13;98015.66;;;16.15;nan
34328;BME280;20588;48.840;10.064;2023-02-14T12:43:49;98010.34;;;16.03;nan
34328;BME280;20588;48.840;10.064;2023-02-14T12:46:25;98006.19;;;15.89;nan
34328;BME280;20588;48.840;10.064;2023-02-14T12:49:15;98002.84;;;15.82;nan
34328;BME280;20588;48.840;10.064;2023-02-14T12:54:56;97999.16;;;16.03;nan
34328;BME280;20588;48.840;10.064;2023-02-14T12:57:39;97991.41;;;15.26;nan
34328;BME280;20588;48.840;10.064;2023-02-14T13:05:57;97982.53;;;15.66;nan
34328;BME280;20588;48.840;10.064;2023-02-14T13:13:56;97970.97;;;15.62;nan
34328;BME280;20588;48.840;10.064;2023-02-14T13:16:50;97967.66;;;15.23;nan
34328;BME280;20588;48.840;10.064;2023-02-14T13:22:10;97970.09;;;15.11;nan
34328;BME280;20588;48.840;10.064;2023-02-14T13:24:46;97965.25;;;15.28;nan
34328;BME280;20588;48.840;10.064;2023-02-14T13:27:23;97962.25;;;15.44;nan
34328;BME280;20588;48.840;10.064;2023-02-14T13:29:57;97960.25;;;15.33;nan
34328;BME280;20588;48.840;10.064;2023-02-14T13:32:27;97957.94;;;14.92;nan
34328;BME280;20588;48.840;10.064;2023-02-14T13:34:56;97961.13;;;14.68;nan
34328;BME280;20588;48.840;10.064;2023-02-14T13:37:24;97953.13;;;14.24;nan
34328;BME280;20588;48.840;10.064;2023-02-14T13:40:14;97954.75;;;14.25;nan
34328;BME280;20588;48.840;10.064;2023-02-14T13:42:51;97948.91;;;14.23;nan
34328;BME280;20588;48.840;10.064;2023-02-14T13:48:24;97944.81;;;13.75;nan
34328;BME280;20588;48.840;10.064;2023-02-14T13:50:58;97954.91;;;13.57;nan
34328;BME280;20588;48.840;10.064;2023-02-14T13:53:42;97946.50;;;13.42;nan
34328;BME280;20588;48.840;10.064;2023-02-14T13:58:58;97944.41;;;13.24;nan
34328;BME280;20588;48.840;10.064;2023-02-14T14:17:37;97935.47;;;12.99;nan
34328;BME280;20588;48.840;10.064;2023-02-14T14:22:57;97937.31;;;12.77;nan
34328;BME280;20588;48.840;10.064;2023-02-14T14:25:37;97937.63;;;12.68;nan
34328;BME280;20588;48.840;10.064;2023-02-14T14:28:12;97930.69;;;12.68;nan
34328;BME280;20588;48.840;10.064;2023-02-14T14:30:43;97930.66;;;12.62;nan
34328;BME280;20588;48.840;10.064;2023-02-14T14:38:21;97926.00;;;12.30;nan
34328;BME280;20588;48.840;10.064;2023-02-14T14:40:48;97930.56;;;12.07;nan
34328;BME280;20588;48.840;10.064;2023-02-14T14:43:29;97931.25;;;11.94;nan
34328;BME280;20588;48.840;10.064;2023-02-14T14:45:59;97927.47;;;11.97;nan
34328;BME280;20588;48.840;10.064;2023-02-14T14:48:30;97930.25;;;11.95;nan
34328;BME280;20588;48.840;10.064;2023-02-14T14:50:58;97935.94;;;12.05;nan
34328;BME280;20588;48.840;10.064;2023-02-14T14:53:28;97933.44;;;11.97;nan
34328;BME280;20588;48.840;10.064;2023-02-14T14:55:57;97929.06;;;11.77;nan
34328;BME280;20588;48.840;10.064;2023-02-14T14:58:43;97922.78;;;11.65;nan
34328;BME280;20588;48.840;10.064;2023-02-14T15:06:50;97931.72;;;11.04;nan
34328;BME280;20588;48.840;10.064;2023-02-14T15:09:22;97926.28;;;10.99;nan
34328;BME280;20588;48.840;10.064;2023-02-14T15:11:49;97929.00;;;10.83;nan
34328;BME280;20588;48.840;10.064;2023-02-14T15:14:39;97919.94;;;10.72;nan
34328;BME280;20588;48.840;10.064;2023-02-14T15:17:17;97924.19;;;10.65;nan
34328;BME280;20588;48.840;10.064;2023-02-14T15:19:47;97926.50;;;10.60;nan
34328;BME280;20588;48.840;10.064;2023-02-14T15:22:36;97927.72;;;10.50;nan
34328;BME280;20588;48.840;10.064;2023-02-14T15:25:21;97924.38;;;10.49;nan
34328;BME280;20588;48.840;10.064;2023-02-14T15:27:48;97924.66;;;10.32;nan
34328;BME280;20588;48.840;10.064;2023-02-14T15:32:45;97919.03;;;10.06;nan
34328;BME280;20588;48.840;10.064;2023-02-14T15:35:15;97924.63;;;9.87;nan
34328;BME280;20588;48.840;10.064;2023-02-14T15:37:43;97929.28;;;9.61;nan
34328;BME280;20588;48.840;10.064;2023-02-14T15:40:22;97923.59;;;9.43;nan
34328;BME280;20588;48.840;10.064;2023-02-14T15:42:50;97926.84;;;9.29;nan
34328;BME280;20588;48.840;10.064;2023-02-14T15:45:29;97925.78;;;9.15;nan
34328;BME280;20588;48.840;10.064;2023-02-14T15:48:04;97927.91;;;9.03;nan
34328;BME280;20588;48.840;10.064;2023-02-14T15:50:34;97927.63;;;8.90;nan
34328;BME280;20588;48.840;10.064;2023-02-14T15:53:07;97925.06;;;8.82;nan
34328;BME280;20588;48.840;10.064;2023-02-14T15:55:34;97928.31;;;8.68;nan